メインページ
METAR-TAF:

METAR-TAF

空港 :

ミッドウェー島, アメリカ合衆国

緯度: 28-13N, 経度: 177-22W, 海抜: 4m

現時点の気象観測

当レポートは1時間3分前の16:56(UTC)に作成
南東の風 9kt
気温 22°C
湿度 73%
気圧 1027 hPa
視程: 14.5km
晴天

METAR: PMDY 111656Z AUTO 13009KT 9SM CLR 22/17 A3033 RMK AO2 SLP270 T02220172

時間: 07:59 (17:59 UTC)

予報

当レポートは19分前の17:40(UTC)に作成
予報は11日の 18時(UTC)から 12日の 18時(UTC)まで有効
南東の風 10kt
視程: 10km
高度3500ftの雲は散在している
12日の 0600時(UTC)から
東/北東の風 7kt
視程: 10km
高度3500ftの雲は散在している
12日の 1200時(UTC)から
の風 12kt、最大20ktの突風を伴う
視程: 10km
高度3500ftの雲は散在している

TAF: PMDY 111740Z 1118/1218 13010KT P6SM SCT035 FM120600 06007KT P6SM SCT035 FM121200 10012G20KT P6SM SCT035

4,000以上の空港の気象観測と天気予報(METAR報とTAF報)

利用可能な観測所は地図上に黄色い丸と赤い丸で示す。

丸の上にカーソルを重ねると観測所名を参照できる。

次にクリックすると気象観測と天気予報を参照できる。

マップの切り替え:黒色「×」印の緑ボタンをクリックして拡大、「-」印の緑ボタンをクリックして縮小、緑色の三角印をクリックして隣りの地図に切り替え


METAR-TAF: